<?xml version="1.0" encoding="UTF-8" standalone="no" ?>
<gpx xmlns="http://www.topografix.com/GPX/1/1" xmlns:xsi="http://www.w3.org/2001/XMLSchema-instance" xsi:schemaLocation="http://www.topografix.com/GPX/1/1 http://www.topografix.com/GPX/1/1/gpx.xsd" version="1.1" creator="VisuGPX - https://www.visugpx.com">
  <metadata>
    <name>Cabanon des Marquis</name>
    <desc><![CDATA[Rando facile,beau point de vue sur le golfe de La Ciotat.]]></desc>
  </metadata>
  <trk>
    <name><![CDATA[Cabanon des Marquis_1]]></name>
    <trkseg>
      <trkpt lat="43.235" lon="5.67013">
        <ele>403</ele>
        <time>2014-10-08T06:26:22Z</time>
      </trkpt>
      <trkpt lat="43.23493" lon="5.67014">
        <ele>411.5</ele>
        <time>2014-10-08T06:26:23Z</time>
      </trkpt>
      <trkpt lat="43.23495" lon="5.67011">
        <ele>408.2</ele>
        <time>2014-10-08T06:26:25Z</time>
      </trkpt>
      <trkpt lat="43.23496" lon="5.67005">
        <ele>404.2</ele>
        <time>2014-10-08T06:26:27Z</time>
      </trkpt>
      <trkpt lat="43.235" lon="5.67008">
        <ele>408.8</ele>
        <time>2014-10-08T06:26:55Z</time>
      </trkpt>
      <trkpt lat="43.23504" lon="5.67006">
        <ele>413.2</ele>
        <time>2014-10-08T06:27:04Z</time>
      </trkpt>
      <trkpt lat="43.23502" lon="5.67002">
        <ele>409.6</ele>
        <time>2014-10-08T06:27:19Z</time>
      </trkpt>
      <trkpt lat="43.23501" lon="5.67001">
        <ele>409</ele>
        <time>2014-10-08T06:27:20Z</time>
      </trkpt>
      <trkpt lat="43.23502" lon="5.66992">
        <ele>401.5</ele>
        <time>2014-10-08T06:27:48Z</time>
      </trkpt>
      <trkpt lat="43.235" lon="5.66988">
        <ele>401.8</ele>
        <time>2014-10-08T06:27:51Z</time>
      </trkpt>
      <trkpt lat="43.23499" lon="5.66984">
        <ele>403.3</ele>
        <time>2014-10-08T06:27:54Z</time>
      </trkpt>
      <trkpt lat="43.23496" lon="5.6698">
        <ele>405</ele>
        <time>2014-10-08T06:27:57Z</time>
      </trkpt>
      <trkpt lat="43.23494" lon="5.66976">
        <ele>403.8</ele>
        <time>2014-10-08T06:28:02Z</time>
      </trkpt>
      <trkpt lat="43.23492" lon="5.66971">
        <ele>402.3</ele>
        <time>2014-10-08T06:28:07Z</time>
      </trkpt>
      <trkpt lat="43.23493" lon="5.66965">
        <ele>404.3</ele>
        <time>2014-10-08T06:28:11Z</time>
      </trkpt>
      <trkpt lat="43.23492" lon="5.6696">
        <ele>402.8</ele>
        <time>2014-10-08T06:28:16Z</time>
      </trkpt>
      <trkpt lat="43.23492" lon="5.66955">
        <ele>402.1</ele>
        <time>2014-10-08T06:28:20Z</time>
      </trkpt>
      <trkpt lat="43.23492" lon="5.66954">
        <ele>403.1</ele>
        <time>2014-10-08T06:28:21Z</time>
      </trkpt>
      <trkpt lat="43.23493" lon="5.66945">
        <ele>400.3</ele>
        <time>2014-10-08T06:28:28Z</time>
      </trkpt>
      <trkpt lat="43.23493" lon="5.66939">
        <ele>401.3</ele>
        <time>2014-10-08T06:28:31Z</time>
      </trkpt>
      <trkpt lat="43.23494" lon="5.66933">
        <ele>401.7</ele>
        <time>2014-10-08T06:28:35Z</time>
      </trkpt>
      <trkpt lat="43.23494" lon="5.66929">
        <ele>403.5</ele>
        <time>2014-10-08T06:28:38Z</time>
      </trkpt>
      <trkpt lat="43.23494" lon="5.66924">
        <ele>403.6</ele>
        <time>2014-10-08T06:28:42Z</time>
      </trkpt>
      <trkpt lat="43.23494" lon="5.66918">
        <ele>404.3</ele>
        <time>2014-10-08T06:28:45Z</time>
      </trkpt>
      <trkpt lat="43.23494" lon="5.66913">
        <ele>403.5</ele>
        <time>2014-10-08T06:28:49Z</time>
      </trkpt>
      <trkpt lat="43.23495" lon="5.66907">
        <ele>404.8</ele>
        <time>2014-10-08T06:28:54Z</time>
      </trkpt>
      <trkpt lat="43.23494" lon="5.66902">
        <ele>405.6</ele>
        <time>2014-10-08T06:28:57Z</time>
      </trkpt>
      <trkpt lat="43.23495" lon="5.66897">
        <ele>404.8</ele>
        <time>2014-10-08T06:29:02Z</time>
      </trkpt>
      <trkpt lat="43.23495" lon="5.66891">
        <ele>405.2</ele>
        <time>2014-10-08T06:29:06Z</time>
      </trkpt>
      <trkpt lat="43.23493" lon="5.66885">
        <ele>402.2</ele>
        <time>2014-10-08T06:29:24Z</time>
      </trkpt>
      <trkpt lat="43.23494" lon="5.66884">
        <ele>402.3</ele>
        <time>2014-10-08T06:29:25Z</time>
      </trkpt>
      <trkpt lat="43.23495" lon="5.66874">
        <ele>400.3</ele>
        <time>2014-10-08T06:29:35Z</time>
      </trkpt>
      <trkpt lat="43.23495" lon="5.66868">
        <ele>399.8</ele>
        <time>2014-10-08T06:29:43Z</time>
      </trkpt>
      <trkpt lat="43.23496" lon="5.66863">
        <ele>402.5</ele>
        <time>2014-10-08T06:29:48Z</time>
      </trkpt>
      <trkpt lat="43.23498" lon="5.66857">
        <ele>405.2</ele>
        <time>2014-10-08T06:29:53Z</time>
      </trkpt>
      <trkpt lat="43.235" lon="5.66853">
        <ele>405.2</ele>
        <time>2014-10-08T06:29:58Z</time>
      </trkpt>
      <trkpt lat="43.23501" lon="5.66848">
        <ele>403</ele>
        <time>2014-10-08T06:30:02Z</time>
      </trkpt>
      <trkpt lat="43.23503" lon="5.66844">
        <ele>402</ele>
        <time>2014-10-08T06:30:06Z</time>
      </trkpt>
      <trkpt lat="43.23503" lon="5.66839">
        <ele>403.6</ele>
        <time>2014-10-08T06:30:09Z</time>
      </trkpt>
      <trkpt lat="43.23503" lon="5.66833">
        <ele>404.8</ele>
        <time>2014-10-08T06:30:12Z</time>
      </trkpt>
      <trkpt lat="43.23505" lon="5.66828">
        <ele>404.3</ele>
        <time>2014-10-08T06:30:16Z</time>
      </trkpt>
      <trkpt lat="43.23507" lon="5.66824">
        <ele>403.2</ele>
        <time>2014-10-08T06:30:21Z</time>
      </trkpt>
      <trkpt lat="43.23509" lon="5.66819">
        <ele>404.7</ele>
        <time>2014-10-08T06:30:25Z</time>
      </trkpt>
      <trkpt lat="43.23509" lon="5.66818">
        <ele>404.8</ele>
        <time>2014-10-08T06:30:26Z</time>
      </trkpt>
    </trkseg>
  </trk>
</gpx>